createdAt,value
2019-03-04T00:07:34.134Z,91.90
2019-03-04T00:12:41.344Z,91.90
2019-03-04T00:17:48.376Z,92.00
2019-03-04T00:22:58.186Z,92.00
2019-03-04T00:28:05.047Z,92.00
2019-03-04T00:33:15.963Z,91.90
2019-03-04T00:38:20.978Z,91.90
2019-03-04T00:43:33.398Z,91.80
2019-03-04T00:48:47.056Z,91.80
2019-03-04T00:54:02.124Z,91.80
2019-03-04T00:59:12.010Z,91.70
2019-03-04T01:04:35.139Z,91.60
2019-03-04T01:15:06.919Z,91.60
2019-03-04T01:20:31.171Z,91.70
2019-03-04T01:25:37.941Z,91.70
2019-03-04T01:30:44.392Z,91.70
2019-03-04T01:35:49.104Z,91.80
2019-03-04T01:46:24.022Z,91.80
2019-03-04T01:51:33.910Z,91.80
2019-03-04T01:56:43.380Z,91.80
2019-03-04T02:01:52.148Z,92.10
2019-03-04T02:07:04.688Z,91.80
2019-03-04T02:12:18.459Z,92.00
2019-03-04T02:17:22.093Z,92.10
2019-03-04T02:22:27.354Z,92.20
2019-03-04T02:27:37.797Z,92.30
2019-03-04T02:32:42.222Z,92.40
2019-03-04T02:37:47.386Z,92.40
2019-03-04T02:42:53.450Z,92.30
2019-03-04T02:47:59.887Z,92.20
2019-03-04T02:53:11.016Z,92.10
2019-03-04T02:58:14.587Z,91.90
2019-03-04T03:03:18.312Z,91.80
2019-03-04T03:08:25.036Z,91.60
2019-03-04T03:13:32.497Z,91.50
2019-03-04T03:18:38.284Z,91.50
2019-03-04T03:23:54.592Z,91.30
2019-03-04T03:28:58.596Z,91.20
2019-03-04T03:34:05.017Z,91.10
2019-03-04T03:39:14.977Z,91.00
2019-03-04T03:44:25.600Z,90.90
2019-03-04T03:49:33.844Z,90.80
2019-03-04T03:54:43.324Z,90.60
2019-03-04T03:59:47.411Z,90.60
2019-03-04T04:04:57.590Z,90.50
2019-03-04T04:10:04.318Z,90.40
2019-03-04T04:15:13.194Z,90.20
2019-03-04T04:20:17.078Z,90.30
2019-03-04T04:25:20.417Z,89.80
2019-03-04T04:30:31.610Z,89.50
2019-03-04T04:35:36.762Z,89.20
2019-03-04T04:40:40.539Z,88.90
2019-03-04T04:45:45.533Z,88.50
2019-03-04T04:50:50.887Z,88.20
2019-03-04T04:55:55.151Z,87.80
2019-03-04T05:00:59.901Z,87.40
2019-03-04T05:06:05.567Z,87.10
2019-03-04T05:11:09.670Z,86.90
2019-03-04T05:16:13.014Z,86.40
2019-03-04T05:21:17.259Z,86.00
2019-03-04T05:26:20.927Z,85.70
2019-03-04T05:31:26.310Z,85.50
2019-03-04T05:36:31.963Z,85.10
2019-03-04T05:41:37.117Z,84.80
2019-03-04T05:46:42.678Z,84.50
2019-03-04T05:51:46.669Z,84.30
2019-03-04T05:56:50.056Z,84.20
2019-03-04T06:01:56.773Z,84.00
2019-03-04T06:07:01.801Z,83.80
2019-03-04T06:12:06.160Z,83.40
2019-03-04T06:17:12.668Z,83.10
2019-03-04T06:22:17.653Z,82.80
2019-03-04T06:27:21.097Z,82.30
2019-03-04T06:32:25.586Z,82.00
2019-03-04T06:37:30.742Z,81.60
2019-03-04T06:42:34.342Z,81.10
2019-03-04T06:47:38.792Z,80.80
2019-03-04T06:52:42.710Z,80.40
2019-03-04T06:57:46.073Z,79.80
2019-03-04T07:02:51.069Z,79.30
2019-03-04T07:07:56.021Z,78.90
2019-03-04T07:13:01.554Z,78.20
2019-03-04T07:18:04.930Z,77.80
2019-03-04T07:23:08.333Z,77.60
2019-03-04T07:28:11.666Z,76.90
2019-03-04T07:33:15.610Z,76.80
2019-03-04T07:38:23.252Z,76.30
2019-03-04T07:43:26.586Z,75.70
2019-03-04T07:48:30.199Z,76.00
2019-03-04T07:53:35.153Z,74.30
2019-03-04T07:58:43.382Z,73.40
2019-03-04T08:03:46.988Z,72.30
2019-03-04T08:09:20.310Z,70.40
2019-03-04T08:14:24.472Z,69.20
2019-03-04T08:19:29.385Z,69.40
2019-03-04T08:24:34.243Z,68.90
2019-03-04T08:29:38.769Z,68.90
2019-03-04T08:34:42.198Z,68.50
2019-03-04T08:39:46.859Z,66.50
2019-03-04T08:44:51.217Z,64.30
2019-03-04T08:49:57.471Z,60.30
2019-03-04T08:55:13.395Z,54.30
2019-03-04T09:00:30.141Z,51.00
2019-03-04T09:05:34.576Z,50.40
2019-03-04T09:10:38.025Z,49.20
2019-03-04T09:15:41.384Z,47.60
2019-03-04T09:20:47.790Z,45.90
2019-03-04T09:25:57.798Z,44.10
2019-03-04T09:31:01.778Z,43.50
2019-03-04T09:36:06.752Z,42.80
2019-03-04T09:41:16.644Z,42.00
2019-03-04T09:46:24.488Z,39.90
2019-03-04T09:51:27.835Z,36.30
2019-03-04T09:56:36.590Z,31.70
2019-03-04T10:01:43.202Z,30.70
2019-03-04T10:07:08.103Z,28.70
2019-03-04T10:12:17.724Z,27.40
2019-03-04T10:17:53.020Z,29.00
2019-03-04T10:23:17.346Z,31.00
2019-03-04T10:29:02.149Z,30.40
2019-03-04T10:34:41.858Z,30.10
2019-03-04T10:40:00.731Z,29.80
2019-03-04T10:45:18.272Z,30.20
2019-03-04T10:50:21.794Z,31.00
2019-03-04T10:55:27.052Z,34.90
2019-03-04T11:00:30.317Z,37.80
2019-03-04T11:05:34.381Z,40.80
2019-03-04T11:10:40.654Z,38.70
2019-03-04T11:15:44.853Z,37.30
2019-03-04T11:20:49.876Z,34.10
2019-03-04T11:25:53.248Z,33.20
2019-03-04T11:30:57.244Z,32.70
2019-03-04T11:36:01.005Z,30.00
2019-03-04T11:41:05.952Z,31.30
2019-03-04T11:46:09.317Z,33.80
2019-03-04T11:51:12.707Z,37.10
2019-03-04T11:56:16.765Z,41.40
2019-03-04T12:01:22.694Z,44.50
2019-03-04T12:06:25.979Z,46.70
2019-03-04T12:11:37.954Z,48.40
2019-03-04T12:16:35.572Z,49.90
2019-03-04T12:21:40.338Z,51.10
2019-03-04T12:26:44.939Z,51.60
2019-03-04T12:31:56.072Z,50.10
2019-03-04T12:36:59.469Z,46.90
2019-03-04T12:42:02.834Z,44.10
2019-03-04T12:52:29.179Z,40.30
2019-03-04T12:57:34.654Z,41.00
2019-03-04T13:02:40.416Z,41.40
2019-03-04T13:07:43.704Z,43.20
2019-03-04T13:12:47.098Z,44.80
2019-03-04T13:17:50.613Z,45.60
2019-03-04T13:22:54.006Z,45.80
2019-03-04T13:28:07.310Z,46.40
2019-03-04T13:33:04.469Z,47.00
2019-03-04T13:38:08.835Z,48.20
2019-03-04T13:43:12.200Z,48.50
2019-03-04T13:48:18.366Z,47.80
2019-03-04T13:53:23.669Z,47.20
2019-03-04T13:58:26.781Z,46.40
2019-03-04T14:03:31.337Z,46.70
2019-03-04T14:08:34.793Z,47.20
2019-03-04T14:13:38.714Z,47.00
2019-03-04T14:18:43.397Z,46.80
2019-03-04T14:23:49.157Z,47.20
2019-03-04T14:28:54.293Z,47.70
2019-03-04T14:34:02.357Z,47.50
2019-03-04T14:39:06.586Z,47.20
2019-03-04T14:44:13.561Z,46.90
2019-03-04T14:49:24.293Z,46.70
2019-03-04T14:54:25.183Z,45.90
2019-03-04T14:59:29.347Z,46.10
2019-03-04T15:04:34.703Z,46.20
2019-03-04T15:09:38.038Z,47.00
2019-03-04T15:14:43.420Z,47.30
2019-03-04T15:19:46.954Z,47.50
2019-03-04T15:24:50.275Z,48.00
2019-03-04T15:29:54.208Z,48.40
2019-03-04T15:34:58.585Z,48.60
2019-03-04T15:40:04.157Z,47.90
2019-03-04T15:45:11.633Z,47.90
2019-03-04T15:50:15.976Z,47.80
2019-03-04T15:55:21.767Z,48.00
2019-03-04T16:00:27.605Z,48.00
2019-03-04T16:05:32.496Z,47.80
2019-03-04T16:10:38.997Z,47.20
2019-03-04T16:15:49.071Z,47.40
2019-03-04T16:20:53.722Z,48.10
2019-03-04T16:26:00.452Z,48.50
2019-03-04T16:31:14.326Z,49.20
2019-03-04T16:36:28.310Z,50.10
2019-03-04T16:41:33.190Z,50.90
2019-03-04T16:46:37.062Z,51.50
2019-03-04T16:51:40.727Z,51.80
2019-03-04T16:56:50.603Z,52.00
2019-03-04T17:01:59.407Z,51.90
2019-03-04T17:07:02.733Z,51.90
2019-03-04T17:12:11.250Z,52.10
2019-03-04T17:17:14.459Z,52.40
2019-03-04T17:22:21.574Z,52.70
2019-03-04T17:27:24.963Z,52.80
2019-03-04T17:32:30.955Z,52.80
2019-03-04T17:37:34.349Z,52.60
2019-03-04T17:42:38.277Z,52.40
2019-03-04T17:47:41.734Z,52.10
2019-03-04T17:52:45.131Z,51.50
2019-03-04T17:57:48.510Z,51.10
2019-03-04T18:02:52.874Z,50.60
2019-03-04T18:07:56.705Z,50.10
2019-03-04T18:13:02.768Z,49.60
2019-03-04T18:18:18.359Z,49.20
2019-03-04T18:23:30.455Z,48.80
2019-03-04T18:28:57.453Z,48.80
2019-03-04T18:34:08.441Z,48.20
2019-03-04T18:39:29.104Z,48.30
2019-03-04T18:44:43.498Z,48.00
2019-03-04T18:49:51.756Z,46.60
2019-03-04T19:00:31.701Z,44.70
2019-03-04T19:05:35.027Z,42.80
2019-03-04T19:10:40.701Z,41.10
2019-03-04T19:15:44.216Z,39.80
2019-03-04T19:20:48.449Z,38.40
2019-03-04T19:25:53.087Z,37.70
2019-03-04T19:30:58.067Z,37.00
2019-03-04T19:36:04.788Z,37.00
2019-03-04T19:41:10.068Z,36.40
2019-03-04T19:46:15.238Z,36.30
2019-03-04T19:51:18.728Z,36.10
2019-03-04T19:56:23.118Z,36.10
2019-03-04T20:01:26.786Z,36.40
2019-03-04T20:06:33.135Z,36.40
2019-03-04T20:11:36.443Z,36.10
2019-03-04T20:16:41.756Z,36.50
2019-03-04T20:21:54.227Z,36.50
2019-03-04T20:26:58.511Z,36.80
2019-03-04T20:32:02.735Z,37.10
2019-03-04T20:37:06.875Z,37.00
2019-03-04T20:42:11.857Z,37.20
2019-03-04T20:47:17.493Z,37.40
2019-03-04T20:52:21.037Z,37.70
2019-03-04T20:57:26.237Z,38.10
2019-03-04T21:02:29.615Z,38.70
2019-03-04T21:07:34.271Z,39.10
2019-03-04T21:12:39.857Z,39.20
2019-03-04T21:17:44.333Z,39.80
2019-03-04T21:22:47.995Z,39.90
2019-03-04T21:27:52.532Z,40.00
2019-03-04T21:32:55.813Z,40.30
2019-03-04T21:38:00.156Z,40.80
2019-03-04T21:43:23.417Z,41.30
2019-03-04T21:48:37.261Z,41.60
2019-03-04T21:53:46.448Z,42.10
2019-03-04T21:58:49.830Z,42.60
2019-03-04T22:03:58.000Z,43.00
2019-03-04T22:09:02.217Z,43.40
2019-03-04T22:14:05.827Z,43.70
2019-03-04T22:19:09.433Z,43.90
2019-03-04T22:24:14.174Z,43.20
2019-03-04T22:29:18.644Z,43.00
2019-03-04T22:34:24.951Z,42.90
2019-03-04T22:39:28.920Z,43.00
2019-03-04T22:44:38.073Z,43.00
2019-03-04T22:49:43.655Z,43.40
2019-03-04T22:54:52.637Z,44.20
2019-03-04T22:59:56.747Z,44.00
2019-03-04T23:05:01.463Z,44.40
2019-03-04T23:10:08.338Z,44.90
2019-03-04T23:15:17.572Z,45.80
2019-03-04T23:20:25.966Z,46.90
2019-03-04T23:25:30.426Z,48.20
2019-03-04T23:30:37.085Z,49.50
2019-03-04T23:35:40.986Z,50.80
2019-03-04T23:40:46.697Z,52.20
2019-03-04T23:45:49.993Z,53.70
2019-03-04T23:50:54.544Z,55.30
2019-03-04T23:55:58.064Z,56.40
